
Distance (Route):
Temperature : 0°C
Humidity : 0%
Pressure : 0hPa| Receiver | Frames | First received | Last received |
|---|---|---|---|
| RDZBGO | 186 | 2026-09-01 12:11:54 | 2026-09-01 13:26:59 |
| Receiver | Date | Latitude | Longitude | Direction | Speed | Altitude | Climb | Temperature | Humidity | Pressure | Voltage | Killtimer | Uptime | BKT | XDATA |
|---|---|---|---|---|---|---|---|---|---|---|---|---|---|---|---|
| RDZBGO | 2026-09-01 13:26:59 | 42.09827 | 9.85315 | 74° | 18km/h | 1814m | -8.3m/s | 0°C | 0% | 0hPa | 0V | 00:00:00 | 00:00:00 | 00:00:00 | |
| RDZBGO | 2026-09-01 13:26:39 | 42.09809 | 9.85225 | 85° | 16km/h | 1989m | -9.6m/s | 0°C | 0% | 0hPa | 0V | 00:00:00 | 00:00:00 | 00:00:00 | |
| RDZBGO | 2026-09-01 13:26:19 | 42.09802 | 9.85129 | 93° | 18km/h | 2165m | -9.7m/s | 0°C | 0% | 0hPa | 0V | 00:00:00 | 00:00:00 | 00:00:00 | |
| RDZBGO | 2026-09-01 13:25:46 | 42.09820 | 9.84898 | 96° | 26km/h | 2379m | -7.1m/s | 0°C | 0% | 0hPa | 0V | 00:00:00 | 00:00:00 | 00:00:00 | |
| RDZBGO | 2026-09-01 13:25:25 | 42.09842 | 9.84725 | 101° | 27km/h | 2535m | -6.8m/s | 0°C | 0% | 0hPa | 0V | 00:00:00 | 00:00:00 | 00:00:00 | |
| RDZBGO | 2026-09-01 13:25:04 | 42.09870 | 9.84562 | 107° | 22km/h | 2673m | -7.5m/s | 0°C | 0% | 0hPa | 0V | 00:00:00 | 00:00:00 | 00:00:00 | |
| RDZBGO | 2026-09-01 13:24:35 | 42.09911 | 9.84321 | 100° | 29km/h | 2854m | -5.3m/s | 0°C | 0% | 0hPa | 0V | 00:00:00 | 00:00:00 | 00:00:00 | |
| RDZBGO | 2026-09-01 13:24:04 | 42.09960 | 9.84006 | 102° | 31km/h | 3051m | -8.1m/s | 0°C | 0% | 0hPa | 0V | 00:00:00 | 00:00:00 | 00:00:00 | |
| RDZBGO | 2026-09-01 13:22:57 | 42.10124 | 9.82974 | 104° | 57km/h | 3446m | -5.8m/s | 0°C | 0% | 0hPa | 0V | 00:00:00 | 00:00:00 | 00:00:00 | |
| RDZBGO | 2026-09-01 13:22:34 | 42.10205 | 9.82588 | 110° | 44km/h | 3580m | -6.2m/s | 0°C | 0% | 0hPa | 0V | 00:00:00 | 00:00:00 | 00:00:00 | |
| RDZBGO | 2026-09-01 13:21:49 | 42.10309 | 9.81959 | 108° | 42km/h | 3915m | -5.3m/s | 0°C | 0% | 0hPa | 0V | 00:00:00 | 00:00:00 | 00:00:00 | |
| RDZBGO | 2026-09-01 13:21:27 | 42.10373 | 9.81658 | 107° | 46km/h | 4056m | -5.7m/s | 0°C | 0% | 0hPa | 0V | 00:00:00 | 00:00:00 | 00:00:00 | |
| RDZBGO | 2026-09-01 13:19:48 | 42.10492 | 9.80250 | 89° | 40km/h | 4771m | -3.8m/s | 0°C | 0% | 0hPa | 0V | 00:00:00 | 00:00:00 | 00:00:00 | |
| RDZBGO | 2026-09-01 13:19:28 | 42.10496 | 9.80000 | 92° | 40km/h | 4912m | -5.1m/s | 0°C | 0% | 0hPa | 0V | 00:00:00 | 00:00:00 | 00:00:00 | |
| RDZBGO | 2026-09-01 13:19:06 | 42.10502 | 9.79716 | 94° | 37km/h | 5059m | -2.5m/s | 0°C | 0% | 0hPa | 0V | 00:00:00 | 00:00:00 | 00:00:00 | |
| RDZBGO | 2026-09-01 13:18:46 | 42.10505 | 9.79476 | 93° | 40km/h | 5187m | -2.1m/s | 0°C | 0% | 0hPa | 0V | 00:00:00 | 00:00:00 | 00:00:00 | |
| RDZBGO | 2026-09-01 13:18:26 | 42.10514 | 9.79208 | 93° | 44km/h | 5307m | -4.7m/s | 0°C | 0% | 0hPa | 0V | 00:00:00 | 00:00:00 | 00:00:00 | |
| RDZBGO | 2026-09-01 13:18:03 | 42.10551 | 9.78887 | 100° | 44km/h | 5488m | -5.8m/s | 0°C | 0% | 0hPa | 0V | 00:00:00 | 00:00:00 | 00:00:00 | |
| RDZBGO | 2026-09-01 13:17:38 | 42.10602 | 9.78516 | 96° | 44km/h | 5655m | -8.6m/s | 0°C | 0% | 0hPa | 0V | 00:00:00 | 00:00:00 | 00:00:00 | |
| RDZBGO | 2026-09-01 13:17:15 | 42.10623 | 9.78156 | 91° | 49km/h | 5810m | -6.1m/s | 0°C | 0% | 0hPa | 0V | 00:00:00 | 00:00:00 | 00:00:00 | |
| RDZBGO | 2026-09-01 13:16:53 | 42.10629 | 9.77812 | 91° | 46km/h | 5961m | -4.6m/s | 0°C | 0% | 0hPa | 0V | 00:00:00 | 00:00:00 | 00:00:00 | |
| RDZBGO | 2026-09-01 13:16:33 | 42.10647 | 9.77512 | 96° | 44km/h | 6100m | -8.4m/s | 0°C | 0% | 0hPa | 0V | 00:00:00 | 00:00:00 | 00:00:00 | |
| RDZBGO | 2026-09-01 13:16:12 | 42.10667 | 9.77210 | 95° | 44km/h | 6254m | -4.8m/s | 0°C | 0% | 0hPa | 0V | 00:00:00 | 00:00:00 | 00:00:00 | |
| RDZBGO | 2026-09-01 13:15:51 | 42.10679 | 9.76906 | 93° | 42km/h | 6396m | -4.6m/s | 0°C | 0% | 0hPa | 0V | 00:00:00 | 00:00:00 | 00:00:00 | |
| RDZBGO | 2026-09-01 13:15:31 | 42.10680 | 9.76600 | 90° | 46km/h | 6534m | -4.0m/s | 0°C | 0% | 0hPa | 0V | 00:00:00 | 00:00:00 | 00:00:00 | |
| RDZBGO | 2026-09-01 13:15:10 | 42.10673 | 9.76268 | 87° | 46km/h | 6662m | -4.6m/s | 0°C | 0% | 0hPa | 0V | 00:00:00 | 00:00:00 | 00:00:00 | |
| RDZBGO | 2026-09-01 13:14:50 | 42.10647 | 9.75950 | 79° | 47km/h | 6800m | -5.6m/s | 0°C | 0% | 0hPa | 0V | 00:00:00 | 00:00:00 | 00:00:00 | |
| RDZBGO | 2026-09-01 13:14:24 | 42.10581 | 9.75536 | 81° | 46km/h | 6983m | -7.0m/s | 0°C | 0% | 0hPa | 0V | 00:00:00 | 00:00:00 | 00:00:00 | |
| RDZBGO | 2026-09-01 13:14:03 | 42.10532 | 9.75199 | 80° | 49km/h | 7155m | -7.9m/s | 0°C | 0% | 0hPa | 0V | 00:00:00 | 00:00:00 | 00:00:00 | |
| RDZBGO | 2026-09-01 13:13:43 | 42.10478 | 9.74863 | 80° | 53km/h | 7319m | -7.0m/s | 0°C | 0% | 0hPa | 0V | 00:00:00 | 00:00:00 | 00:00:00 | |
| RDZBGO | 2026-09-01 13:13:22 | 42.10421 | 9.74487 | 79° | 57km/h | 7495m | -7.0m/s | 0°C | 0% | 0hPa | 0V | 00:00:00 | 00:00:00 | 00:00:00 | |
| RDZBGO | 2026-09-01 13:13:02 | 42.10368 | 9.74108 | 81° | 58km/h | 7661m | -6.0m/s | 0°C | 0% | 0hPa | 0V | 00:00:00 | 00:00:00 | 00:00:00 | |
| RDZBGO | 2026-09-01 13:11:14 | 42.10089 | 9.71783 | 91° | 64km/h | 8519m | -7.7m/s | 0°C | 0% | 0hPa | 0V | 00:00:00 | 00:00:00 | 00:00:00 | |
| RDZBGO | 2026-09-01 13:10:41 | 42.10088 | 9.71102 | 93° | 64km/h | 8787m | -6.8m/s | 0°C | 0% | 0hPa | 0V | 00:00:00 | 00:00:00 | 00:00:00 | |
| RDZBGO | 2026-09-01 13:10:19 | 42.10080 | 9.70638 | 87° | 62km/h | 8973m | -8.6m/s | 0°C | 0% | 0hPa | 0V | 00:00:00 | 00:00:00 | 00:00:00 | |
| RDZBGO | 2026-09-01 13:09:53 | 42.10043 | 9.70050 | 86° | 71km/h | 9205m | -6.8m/s | 0°C | 0% | 0hPa | 0V | 00:00:00 | 00:00:00 | 00:00:00 | |
| RDZBGO | 2026-09-01 13:09:32 | 42.10018 | 9.69545 | 91° | 69km/h | 9382m | -10.6m/s | 0°C | 0% | 0hPa | 0V | 00:00:00 | 00:00:00 | 00:00:00 | |
| RDZBGO | 2026-09-01 13:09:09 | 42.09990 | 9.69023 | 87° | 68km/h | 9586m | -7.9m/s | 0°C | 0% | 0hPa | 0V | 00:00:00 | 00:00:00 | 00:00:00 | |
| RDZBGO | 2026-09-01 13:08:49 | 42.09958 | 9.68573 | 83° | 66km/h | 9759m | -8.4m/s | 0°C | 0% | 0hPa | 0V | 00:00:00 | 00:00:00 | 00:00:00 | |
| RDZBGO | 2026-09-01 13:08:28 | 42.09913 | 9.68128 | 80° | 64km/h | 9943m | -7.3m/s | 0°C | 0% | 0hPa | 0V | 00:00:00 | 00:00:00 | 00:00:00 | |
| RDZBGO | 2026-09-01 13:08:00 | 42.09810 | 9.67475 | 76° | 75km/h | 10200m | -7.8m/s | 0°C | 0% | 0hPa | 0V | 00:00:00 | 00:00:00 | 00:00:00 | |
| RDZBGO | 2026-09-01 13:07:40 | 42.09725 | 9.66981 | 76° | 75km/h | 10398m | -10.2m/s | 0°C | 0% | 0hPa | 0V | 00:00:00 | 00:00:00 | 00:00:00 | |
| RDZBGO | 2026-09-01 13:07:05 | 42.09542 | 9.66073 | 76° | 80km/h | 10730m | -6.7m/s | 0°C | 0% | 0hPa | 0V | 00:00:00 | 00:00:00 | 00:00:00 | |
| RDZBGO | 2026-09-01 13:06:45 | 42.09442 | 9.65545 | 78° | 82km/h | 10925m | -9.1m/s | 0°C | 0% | 0hPa | 0V | 00:00:00 | 00:00:00 | 00:00:00 | |
| RDZBGO | 2026-09-01 13:06:23 | 42.09340 | 9.64945 | 78° | 86km/h | 11140m | -8.2m/s | 0°C | 0% | 0hPa | 0V | 00:00:00 | 00:00:00 | 00:00:00 | |
| RDZBGO | 2026-09-01 13:06:02 | 42.09227 | 9.64365 | 74° | 84km/h | 11340m | -9.4m/s | 0°C | 0% | 0hPa | 0V | 00:00:00 | 00:00:00 | 00:00:00 | |
| RDZBGO | 2026-09-01 13:05:41 | 42.09114 | 9.63822 | 71° | 78km/h | 11538m | -7.8m/s | 0°C | 0% | 0hPa | 0V | 00:00:00 | 00:00:00 | 00:00:00 | |
| RDZBGO | 2026-09-01 13:05:20 | 42.08977 | 9.63293 | 71° | 82km/h | 11745m | -9.6m/s | 0°C | 0% | 0hPa | 0V | 00:00:00 | 00:00:00 | 00:00:00 | |
| RDZBGO | 2026-09-01 13:04:59 | 42.08814 | 9.62731 | 69° | 82km/h | 11963m | -10.7m/s | 0°C | 0% | 0hPa | 0V | 00:00:00 | 00:00:00 | 00:00:00 | |
| RDZBGO | 2026-09-01 13:04:39 | 42.08635 | 9.62160 | 68° | 91km/h | 12171m | -8.9m/s | 0°C | 0% | 0hPa | 0V | 00:00:00 | 00:00:00 | 00:00:00 | |
| RDZBGO | 2026-09-01 13:04:18 | 42.08447 | 9.61543 | 68° | 95km/h | 12388m | -8.1m/s | 0°C | 0% | 0hPa | 0V | 00:00:00 | 00:00:00 | 00:00:00 | |
| RDZBGO | 2026-09-01 13:03:57 | 42.08279 | 9.60933 | 72° | 89km/h | 12602m | -7.9m/s | 0°C | 0% | 0hPa | 0V | 00:00:00 | 00:00:00 | 00:00:00 | |
| RDZBGO | 2026-09-01 13:03:36 | 42.08113 | 9.60365 | 68° | 86km/h | 12820m | -11.4m/s | 0°C | 0% | 0hPa | 0V | 00:00:00 | 00:00:00 | 00:00:00 | |
| RDZBGO | 2026-09-01 13:03:16 | 42.07945 | 9.59849 | 66° | 82km/h | 13036m | -10.5m/s | 0°C | 0% | 0hPa | 0V | 00:00:00 | 00:00:00 | 00:00:00 | |
| RDZBGO | 2026-09-01 13:02:53 | 42.07733 | 9.59255 | 69° | 84km/h | 13273m | -9.7m/s | 0°C | 0% | 0hPa | 0V | 00:00:00 | 00:00:00 | 00:00:00 | |
| RDZBGO | 2026-09-01 13:02:33 | 42.07539 | 9.58734 | 58° | 84km/h | 13495m | -9.5m/s | 0°C | 0% | 0hPa | 0V | 00:00:00 | 00:00:00 | 00:00:00 | |
| RDZBGO | 2026-09-01 13:02:07 | 42.07250 | 9.58110 | 62° | 91km/h | 13770m | -10.7m/s | 0°C | 0% | 0hPa | 0V | 00:00:00 | 00:00:00 | 00:00:00 | |
| RDZBGO | 2026-09-01 12:57:43 | 42.06406 | 9.51844 | 58° | 55km/h | 16915m | -10.6m/s | 0°C | 0% | 0hPa | 0V | 00:00:00 | 00:00:00 | 00:00:00 | |
| RDZBGO | 2026-09-01 12:57:21 | 42.06316 | 9.51427 | 93° | 55km/h | 17187m | -9.1m/s | 0°C | 0% | 0hPa | 0V | 00:00:00 | 00:00:00 | 00:00:00 | |
| RDZBGO | 2026-09-01 12:57:01 | 42.06321 | 9.51137 | 98° | 29km/h | 17441m | -13.9m/s | 0°C | 0% | 0hPa | 0V | 00:00:00 | 00:00:00 | 00:00:00 | |
| RDZBGO | 2026-09-01 12:56:40 | 42.06305 | 9.51011 | 4° | 24km/h | 17718m | -10.9m/s | 0°C | 0% | 0hPa | 0V | 00:00:00 | 00:00:00 | 00:00:00 | |
| RDZBGO | 2026-09-01 12:56:18 | 42.06154 | 9.50911 | 50° | 37km/h | 17977m | -11.1m/s | 0°C | 0% | 0hPa | 0V | 00:00:00 | 00:00:00 | 00:00:00 | |
| RDZBGO | 2026-09-01 12:55:57 | 42.06043 | 9.50713 | 58° | 27km/h | 18272m | -10.0m/s | 0°C | 0% | 0hPa | 0V | 00:00:00 | 00:00:00 | 00:00:00 | |
| RDZBGO | 2026-09-01 12:55:31 | 42.05991 | 9.50498 | 77° | 35km/h | 18573m | -8.2m/s | 0°C | 0% | 0hPa | 0V | 00:00:00 | 00:00:00 | 00:00:00 | |
| RDZBGO | 2026-09-01 12:55:05 | 42.06000 | 9.50290 | 64° | 9km/h | 18906m | -13.4m/s | 0°C | 0% | 0hPa | 0V | 00:00:00 | 00:00:00 | 00:00:00 | |
| RDZBGO | 2026-09-01 12:54:35 | 42.05912 | 9.50175 | 69° | 20km/h | 19302m | -13.8m/s | 0°C | 0% | 0hPa | 0V | 00:00:00 | 00:00:00 | 00:00:00 | |
| RDZBGO | 2026-09-01 12:54:10 | 42.05913 | 9.50061 | 38° | 5km/h | 19611m | -15.3m/s | 0°C | 0% | 0hPa | 0V | 00:00:00 | 00:00:00 | 00:00:00 | |
| RDZBGO | 2026-09-01 12:53:50 | 42.05924 | 9.50009 | 227° | 2km/h | 19893m | -7.1m/s | 0°C | 0% | 0hPa | 0V | 00:00:00 | 00:00:00 | 00:00:00 | |
| RDZBGO | 2026-09-01 12:53:21 | 42.05873 | 9.49945 | 79° | 15km/h | 20272m | -10.5m/s | 0°C | 0% | 0hPa | 0V | 00:00:00 | 00:00:00 | 00:00:00 | |
| RDZBGO | 2026-09-01 12:53:01 | 42.05880 | 9.49903 | 70° | 9km/h | 20537m | -12.8m/s | 0°C | 0% | 0hPa | 0V | 00:00:00 | 00:00:00 | 00:00:00 | |
| RDZBGO | 2026-09-01 12:52:39 | 42.05885 | 9.49802 | 131° | 11km/h | 20832m | -11.7m/s | 0°C | 0% | 0hPa | 0V | 00:00:00 | 00:00:00 | 00:00:00 | |
| RDZBGO | 2026-09-01 12:52:19 | 42.05931 | 9.49853 | 253° | 11km/h | 21150m | -12.3m/s | 0°C | 0% | 0hPa | 0V | 00:00:00 | 00:00:00 | 00:00:00 | |
| RDZBGO | 2026-09-01 12:51:56 | 42.05884 | 9.49903 | 336° | 20km/h | 21457m | -12.5m/s | 0°C | 0% | 0hPa | 0V | 00:00:00 | 00:00:00 | 00:00:00 | |
| RDZBGO | 2026-09-01 12:51:36 | 42.05789 | 9.49890 | 43° | 22km/h | 21710m | -13.9m/s | 0°C | 0% | 0hPa | 0V | 00:00:00 | 00:00:00 | 00:00:00 | |
| RDZBGO | 2026-09-01 12:51:15 | 42.05734 | 9.49800 | 121° | 4km/h | 22093m | -18.0m/s | 0°C | 0% | 0hPa | 0V | 00:00:00 | 00:00:00 | 00:00:00 | |
| RDZBGO | 2026-09-01 12:50:48 | 42.05736 | 9.49856 | 267° | 15km/h | 22488m | -11.0m/s | 0°C | 0% | 0hPa | 0V | 00:00:00 | 00:00:00 | 00:00:00 | |
| RDZBGO | 2026-09-01 12:50:28 | 42.05727 | 9.49937 | 282° | 9km/h | 22795m | -13.3m/s | 0°C | 0% | 0hPa | 0V | 00:00:00 | 00:00:00 | 00:00:00 | |
| RDZBGO | 2026-09-01 12:50:07 | 42.05708 | 9.50057 | 294° | 20km/h | 23103m | -15.4m/s | 0°C | 0% | 0hPa | 0V | 00:00:00 | 00:00:00 | 00:00:00 | |
| RDZBGO | 2026-09-01 12:49:46 | 42.05636 | 9.50154 | 298° | 16km/h | 23408m | -17.8m/s | 0°C | 0% | 0hPa | 0V | 00:00:00 | 00:00:00 | 00:00:00 | |
| RDZBGO | 2026-09-01 12:49:25 | 42.05566 | 9.50226 | 318° | 18km/h | 23713m | -15.4m/s | 0°C | 0% | 0hPa | 0V | 00:00:00 | 00:00:00 | 00:00:00 | |
| RDZBGO | 2026-09-01 12:49:05 | 42.05460 | 9.50266 | 356° | 27km/h | 24005m | -17.3m/s | 0°C | 0% | 0hPa | 0V | 00:00:00 | 00:00:00 | 00:00:00 | |
| RDZBGO | 2026-09-01 12:48:44 | 42.05343 | 9.50306 | 352° | 15km/h | 24360m | -14.9m/s | 0°C | 0% | 0hPa | 0V | 00:00:00 | 00:00:00 | 00:00:00 | |
| RDZBGO | 2026-09-01 12:48:23 | 42.05274 | 9.50334 | 24° | 13km/h | 24694m | -16.1m/s | 0°C | 0% | 0hPa | 0V | 00:00:00 | 00:00:00 | 00:00:00 | |
| RDZBGO | 2026-09-01 12:48:03 | 42.05251 | 9.50300 | 145° | 5km/h | 25052m | -16.9m/s | 0°C | 0% | 0hPa | 0V | 00:00:00 | 00:00:00 | 00:00:00 | |
| RDZBGO | 2026-09-01 12:47:42 | 42.05262 | 9.50343 | 355° | 26km/h | 25382m | -21.4m/s | 0°C | 0% | 0hPa | 0V | 00:00:00 | 00:00:00 | 00:00:00 | |
| RDZBGO | 2026-09-01 12:47:21 | 42.05248 | 9.50413 | 266° | 24km/h | 25384m | 4.5m/s | 0°C | 0% | 0hPa | 0V | 00:00:00 | 00:00:00 | 00:00:00 | |
| RDZBGO | 2026-09-01 12:47:01 | 42.05269 | 9.50489 | 216° | 20km/h | 25296m | 4.3m/s | 0°C | 0% | 0hPa | 0V | 00:00:00 | 00:00:00 | 00:00:00 | |
| RDZBGO | 2026-09-01 12:46:40 | 42.05301 | 9.50571 | 241° | 15km/h | 25205m | 4.2m/s | 0°C | 0% | 0hPa | 0V | 00:00:00 | 00:00:00 | 00:00:00 | |
| RDZBGO | 2026-09-01 12:46:20 | 42.05301 | 9.50587 | 71° | 7km/h | 25105m | 2.5m/s | 0°C | 0% | 0hPa | 0V | 00:00:00 | 00:00:00 | 00:00:00 | |
| RDZBGO | 2026-09-01 12:45:59 | 42.05312 | 9.50545 | 66° | 18km/h | 25006m | 3.3m/s | 0°C | 0% | 0hPa | 0V | 00:00:00 | 00:00:00 | 00:00:00 | |
| RDZBGO | 2026-09-01 12:45:18 | 42.05255 | 9.50434 | 247° | 2km/h | 24809m | 5.1m/s | 0°C | 0% | 0hPa | 0V | 00:00:00 | 00:00:00 | 00:00:00 | |
| RDZBGO | 2026-09-01 12:44:58 | 42.05199 | 9.50401 | 357° | 20km/h | 24716m | 3.4m/s | 0°C | 0% | 0hPa | 0V | 00:00:00 | 00:00:00 | 00:00:00 | |
| RDZBGO | 2026-09-01 12:44:38 | 42.05132 | 9.50406 | 354° | 18km/h | 24616m | 4.0m/s | 0°C | 0% | 0hPa | 0V | 00:00:00 | 00:00:00 | 00:00:00 | |
| RDZBGO | 2026-09-01 12:44:17 | 42.05078 | 9.50399 | 316° | 11km/h | 24511m | 4.9m/s | 0°C | 0% | 0hPa | 0V | 00:00:00 | 00:00:00 | 00:00:00 | |
| RDZBGO | 2026-09-01 12:43:57 | 42.04998 | 9.50406 | 358° | 9km/h | 24421m | 6.6m/s | 0°C | 0% | 0hPa | 0V | 00:00:00 | 00:00:00 | 00:00:00 | |
| RDZBGO | 2026-09-01 12:43:37 | 42.04916 | 9.50410 | 273° | 20km/h | 24330m | 5.3m/s | 0°C | 0% | 0hPa | 0V | 00:00:00 | 00:00:00 | 00:00:00 | |
| RDZBGO | 2026-09-01 12:43:16 | 42.04804 | 9.50438 | 3° | 27km/h | 24239m | 4.2m/s | 0°C | 0% | 0hPa | 0V | 00:00:00 | 00:00:00 | 00:00:00 | |
| RDZBGO | 2026-09-01 12:42:55 | 42.04679 | 9.50496 | 347° | 26km/h | 24144m | 5.0m/s | 0°C | 0% | 0hPa | 0V | 00:00:00 | 00:00:00 | 00:00:00 | |
| RDZBGO | 2026-09-01 12:42:35 | 42.04547 | 9.50551 | 353° | 22km/h | 24054m | 4.7m/s | 0°C | 0% | 0hPa | 0V | 00:00:00 | 00:00:00 | 00:00:00 | |
| RDZBGO | 2026-09-01 12:42:14 | 42.04428 | 9.50592 | 347° | 31km/h | 23960m | 4.2m/s | 0°C | 0% | 0hPa | 0V | 00:00:00 | 00:00:00 | 00:00:00 | |
| RDZBGO | 2026-09-01 12:41:53 | 42.04313 | 9.50622 | 2° | 31km/h | 23865m | 3.1m/s | 0°C | 0% | 0hPa | 0V | 00:00:00 | 00:00:00 | 00:00:00 | |
| RDZBGO | 2026-09-01 12:41:33 | 42.04216 | 9.50684 | 320° | 16km/h | 23774m | 3.4m/s | 0°C | 0% | 0hPa | 0V | 00:00:00 | 00:00:00 | 00:00:00 | |
| RDZBGO | 2026-09-01 12:41:12 | 42.04128 | 9.50755 | 265° | 16km/h | 23680m | 4.1m/s | 0°C | 0% | 0hPa | 0V | 00:00:00 | 00:00:00 | 00:00:00 | |
| RDZBGO | 2026-09-01 12:40:51 | 42.04053 | 9.50823 | 296° | 13km/h | 23590m | 3.5m/s | 0°C | 0% | 0hPa | 0V | 00:00:00 | 00:00:00 | 00:00:00 | |
| RDZBGO | 2026-09-01 12:40:30 | 42.03974 | 9.50919 | 288° | 16km/h | 23493m | 4.6m/s | 0°C | 0% | 0hPa | 0V | 00:00:00 | 00:00:00 | 00:00:00 | |
| RDZBGO | 2026-09-01 12:40:09 | 42.03908 | 9.51008 | 312° | 31km/h | 23399m | 4.0m/s | 0°C | 0% | 0hPa | 0V | 00:00:00 | 00:00:00 | 00:00:00 | |
| RDZBGO | 2026-09-01 12:39:49 | 42.03824 | 9.51089 | 294° | 24km/h | 23308m | 4.9m/s | 0°C | 0% | 0hPa | 0V | 00:00:00 | 00:00:00 | 00:00:00 | |
| RDZBGO | 2026-09-01 12:39:29 | 42.03735 | 9.51187 | 336° | 24km/h | 23215m | 4.3m/s | 0°C | 0% | 0hPa | 0V | 00:00:00 | 00:00:00 | 00:00:00 | |
| RDZBGO | 2026-09-01 12:39:08 | 42.03661 | 9.51327 | 313° | 24km/h | 23122m | 3.4m/s | 0°C | 0% | 0hPa | 0V | 00:00:00 | 00:00:00 | 00:00:00 | |
| RDZBGO | 2026-09-01 12:38:47 | 42.03610 | 9.51520 | 298° | 38km/h | 23028m | 5.0m/s | 0°C | 0% | 0hPa | 0V | 00:00:00 | 00:00:00 | 00:00:00 | |
| RDZBGO | 2026-09-01 12:38:27 | 42.03580 | 9.51680 | 256° | 18km/h | 22939m | 4.6m/s | 0°C | 0% | 0hPa | 0V | 00:00:00 | 00:00:00 | 00:00:00 | |
| RDZBGO | 2026-09-01 12:38:06 | 42.03585 | 9.51782 | 192° | 7km/h | 22846m | 4.4m/s | 0°C | 0% | 0hPa | 0V | 00:00:00 | 00:00:00 | 00:00:00 | |
| RDZBGO | 2026-09-01 12:37:46 | 42.03549 | 9.51847 | 280° | 26km/h | 22756m | 2.9m/s | 0°C | 0% | 0hPa | 0V | 00:00:00 | 00:00:00 | 00:00:00 | |
| RDZBGO | 2026-09-01 12:37:25 | 42.03512 | 9.51948 | 295° | 26km/h | 22664m | 4.1m/s | 0°C | 0% | 0hPa | 0V | 00:00:00 | 00:00:00 | 00:00:00 | |
| RDZBGO | 2026-09-01 12:37:05 | 42.03498 | 9.52018 | 288° | 11km/h | 22573m | 5.2m/s | 0°C | 0% | 0hPa | 0V | 00:00:00 | 00:00:00 | 00:00:00 | |
| RDZBGO | 2026-09-01 12:36:45 | 42.03502 | 9.52091 | 25° | 18km/h | 22484m | 2.8m/s | 0°C | 0% | 0hPa | 0V | 00:00:00 | 00:00:00 | 00:00:00 | |
| RDZBGO | 2026-09-01 12:36:25 | 42.03496 | 9.52108 | 161° | 16km/h | 22399m | 4.2m/s | 0°C | 0% | 0hPa | 0V | 00:00:00 | 00:00:00 | 00:00:00 | |
| RDZBGO | 2026-09-01 12:36:05 | 42.03499 | 9.52172 | 316° | 13km/h | 22312m | 4.5m/s | 0°C | 0% | 0hPa | 0V | 00:00:00 | 00:00:00 | 00:00:00 | |
| RDZBGO | 2026-09-01 12:35:43 | 42.03499 | 9.52235 | 301° | 4km/h | 22209m | 4.3m/s | 0°C | 0% | 0hPa | 0V | 00:00:00 | 00:00:00 | 00:00:00 | |
| RDZBGO | 2026-09-01 12:35:23 | 42.03519 | 9.52246 | 299° | 15km/h | 22120m | 3.2m/s | 0°C | 0% | 0hPa | 0V | 00:00:00 | 00:00:00 | 00:00:00 | |
| RDZBGO | 2026-09-01 12:35:03 | 42.03521 | 9.52234 | 318° | 9km/h | 22034m | 3.3m/s | 0°C | 0% | 0hPa | 0V | 00:00:00 | 00:00:00 | 00:00:00 | |
| RDZBGO | 2026-09-01 12:34:42 | 42.03505 | 9.52187 | 356° | 24km/h | 21937m | 3.8m/s | 0°C | 0% | 0hPa | 0V | 00:00:00 | 00:00:00 | 00:00:00 | |
| RDZBGO | 2026-09-01 12:34:22 | 42.03453 | 9.52101 | 39° | 22km/h | 21847m | 4.2m/s | 0°C | 0% | 0hPa | 0V | 00:00:00 | 00:00:00 | 00:00:00 | |
| RDZBGO | 2026-09-01 12:34:02 | 42.03392 | 9.51989 | 36° | 18km/h | 21759m | 5.7m/s | 0°C | 0% | 0hPa | 0V | 00:00:00 | 00:00:00 | 00:00:00 | |
| RDZBGO | 2026-09-01 12:33:42 | 42.03310 | 9.51896 | 21° | 26km/h | 21666m | 6.1m/s | 0°C | 0% | 0hPa | 0V | 00:00:00 | 00:00:00 | 00:00:00 | |
| RDZBGO | 2026-09-01 12:33:21 | 42.03200 | 9.51846 | 1° | 37km/h | 21569m | 3.6m/s | 0°C | 0% | 0hPa | 0V | 00:00:00 | 00:00:00 | 00:00:00 | |
| RDZBGO | 2026-09-01 12:33:00 | 42.03112 | 9.51862 | 327° | 26km/h | 21477m | 3.7m/s | 0°C | 0% | 0hPa | 0V | 00:00:00 | 00:00:00 | 00:00:00 | |
| RDZBGO | 2026-09-01 12:32:39 | 42.03026 | 9.51942 | 330° | 20km/h | 21386m | 6.1m/s | 0°C | 0% | 0hPa | 0V | 00:00:00 | 00:00:00 | 00:00:00 | |
| RDZBGO | 2026-09-01 12:32:19 | 42.02976 | 9.51994 | 315° | 31km/h | 21302m | 5.4m/s | 0°C | 0% | 0hPa | 0V | 00:00:00 | 00:00:00 | 00:00:00 | |
| RDZBGO | 2026-09-01 12:31:59 | 42.02949 | 9.52052 | 225° | 16km/h | 21211m | 3.4m/s | 0°C | 0% | 0hPa | 0V | 00:00:00 | 00:00:00 | 00:00:00 | |
| RDZBGO | 2026-09-01 12:31:38 | 42.02973 | 9.52092 | 219° | 20km/h | 21131m | 3.6m/s | 0°C | 0% | 0hPa | 0V | 00:00:00 | 00:00:00 | 00:00:00 | |
| RDZBGO | 2026-09-01 12:31:17 | 42.03037 | 9.52153 | 198° | 16km/h | 21044m | 4.8m/s | 0°C | 0% | 0hPa | 0V | 00:00:00 | 00:00:00 | 00:00:00 | |
| RDZBGO | 2026-09-01 12:30:56 | 42.03094 | 9.52132 | 159° | 13km/h | 20948m | 5.2m/s | 0°C | 0% | 0hPa | 0V | 00:00:00 | 00:00:00 | 00:00:00 | |
| RDZBGO | 2026-09-01 12:30:16 | 42.03132 | 9.51921 | 90° | 15km/h | 20774m | 5.1m/s | 0°C | 0% | 0hPa | 0V | 00:00:00 | 00:00:00 | 00:00:00 | |
| RDZBGO | 2026-09-01 12:29:54 | 42.03114 | 9.51837 | 140° | 9km/h | 20675m | 4.0m/s | 0°C | 0% | 0hPa | 0V | 00:00:00 | 00:00:00 | 00:00:00 | |
| RDZBGO | 2026-09-01 12:29:34 | 42.03095 | 9.51792 | 110° | 16km/h | 20590m | 5.0m/s | 0°C | 0% | 0hPa | 0V | 00:00:00 | 00:00:00 | 00:00:00 | |
| RDZBGO | 2026-09-01 12:29:13 | 42.03115 | 9.51774 | 147° | 11km/h | 20494m | 3.8m/s | 0°C | 0% | 0hPa | 0V | 00:00:00 | 00:00:00 | 00:00:00 | |
| RDZBGO | 2026-09-01 12:28:52 | 42.03130 | 9.51766 | 47° | 9km/h | 20402m | 3.7m/s | 0°C | 0% | 0hPa | 0V | 00:00:00 | 00:00:00 | 00:00:00 | |
| RDZBGO | 2026-09-01 12:28:32 | 42.03114 | 9.51737 | 147° | 5km/h | 20312m | 4.5m/s | 0°C | 0% | 0hPa | 0V | 00:00:00 | 00:00:00 | 00:00:00 | |
| RDZBGO | 2026-09-01 12:28:09 | 42.03098 | 9.51680 | 21° | 11km/h | 20210m | 3.4m/s | 0°C | 0% | 0hPa | 0V | 00:00:00 | 00:00:00 | 00:00:00 | |
| RDZBGO | 2026-09-01 12:27:49 | 42.03036 | 9.51600 | 14° | 29km/h | 20127m | 2.9m/s | 0°C | 0% | 0hPa | 0V | 00:00:00 | 00:00:00 | 00:00:00 | |
| RDZBGO | 2026-09-01 12:27:28 | 42.02954 | 9.51549 | 6° | 20km/h | 20039m | 5.1m/s | 0°C | 0% | 0hPa | 0V | 00:00:00 | 00:00:00 | 00:00:00 | |
| RDZBGO | 2026-09-01 12:27:07 | 42.02899 | 9.51551 | 11° | 9km/h | 19949m | 4.7m/s | 0°C | 0% | 0hPa | 0V | 00:00:00 | 00:00:00 | 00:00:00 | |
| RDZBGO | 2026-09-01 12:26:46 | 42.02870 | 9.51580 | 20° | 7km/h | 19859m | 2.9m/s | 0°C | 0% | 0hPa | 0V | 00:00:00 | 00:00:00 | 00:00:00 | |
| RDZBGO | 2026-09-01 12:26:26 | 42.02856 | 9.51573 | 113° | 16km/h | 19777m | 4.4m/s | 0°C | 0% | 0hPa | 0V | 00:00:00 | 00:00:00 | 00:00:00 | |
| RDZBGO | 2026-09-01 12:26:05 | 42.02845 | 9.51489 | 69° | 22km/h | 19692m | 3.8m/s | 0°C | 0% | 0hPa | 0V | 00:00:00 | 00:00:00 | 00:00:00 | |
| RDZBGO | 2026-09-01 12:25:44 | 42.02779 | 9.51444 | 62° | 5km/h | 19604m | 3.3m/s | 0°C | 0% | 0hPa | 0V | 00:00:00 | 00:00:00 | 00:00:00 | |
| RDZBGO | 2026-09-01 12:25:24 | 42.02750 | 9.51379 | 45° | 13km/h | 19517m | 4.3m/s | 0°C | 0% | 0hPa | 0V | 00:00:00 | 00:00:00 | 00:00:00 | |
| RDZBGO | 2026-09-01 12:25:02 | 42.02730 | 9.51252 | 56° | 27km/h | 19427m | 4.9m/s | 0°C | 0% | 0hPa | 0V | 00:00:00 | 00:00:00 | 00:00:00 | |
| RDZBGO | 2026-09-01 12:24:42 | 42.02682 | 9.51124 | 44° | 31km/h | 19346m | 3.2m/s | 0°C | 0% | 0hPa | 0V | 00:00:00 | 00:00:00 | 00:00:00 | |
| RDZBGO | 2026-09-01 12:24:21 | 42.02605 | 9.50991 | 42° | 33km/h | 19264m | 5.3m/s | 0°C | 0% | 0hPa | 0V | 00:00:00 | 00:00:00 | 00:00:00 | |
| RDZBGO | 2026-09-01 12:24:01 | 42.02516 | 9.50890 | 34° | 15km/h | 19184m | 4.6m/s | 0°C | 0% | 0hPa | 0V | 00:00:00 | 00:00:00 | 00:00:00 | |
| RDZBGO | 2026-09-01 12:23:40 | 42.02427 | 9.50803 | 34° | 18km/h | 19096m | 5.2m/s | 0°C | 0% | 0hPa | 0V | 00:00:00 | 00:00:00 | 00:00:00 | |
| RDZBGO | 2026-09-01 12:23:20 | 42.02360 | 9.50752 | 19° | 16km/h | 19010m | 4.4m/s | 0°C | 0% | 0hPa | 0V | 00:00:00 | 00:00:00 | 00:00:00 | |
| RDZBGO | 2026-09-01 12:22:59 | 42.02349 | 9.50706 | 131° | 26km/h | 18916m | 3.9m/s | 0°C | 0% | 0hPa | 0V | 00:00:00 | 00:00:00 | 00:00:00 | |
| RDZBGO | 2026-09-01 12:22:38 | 42.02391 | 9.50597 | 100° | 18km/h | 18827m | 3.5m/s | 0°C | 0% | 0hPa | 0V | 00:00:00 | 00:00:00 | 00:00:00 | |
| RDZBGO | 2026-09-01 12:22:18 | 42.02437 | 9.50441 | 81° | 22km/h | 18741m | 3.6m/s | 0°C | 0% | 0hPa | 0V | 00:00:00 | 00:00:00 | 00:00:00 | |
| RDZBGO | 2026-09-01 12:21:57 | 42.02440 | 9.50252 | 86° | 31km/h | 18649m | 5.1m/s | 0°C | 0% | 0hPa | 0V | 00:00:00 | 00:00:00 | 00:00:00 | |
| RDZBGO | 2026-09-01 12:21:37 | 42.02414 | 9.50037 | 81° | 42km/h | 18557m | 4.6m/s | 0°C | 0% | 0hPa | 0V | 00:00:00 | 00:00:00 | 00:00:00 | |
| RDZBGO | 2026-09-01 12:21:16 | 42.02381 | 9.49803 | 71° | 31km/h | 18467m | 3.3m/s | 0°C | 0% | 0hPa | 0V | 00:00:00 | 00:00:00 | 00:00:00 | |
| RDZBGO | 2026-09-01 12:20:53 | 42.02336 | 9.49599 | 71° | 24km/h | 18374m | 3.2m/s | 0°C | 0% | 0hPa | 0V | 00:00:00 | 00:00:00 | 00:00:00 | |
| RDZBGO | 2026-09-01 12:20:27 | 42.02244 | 9.49375 | 71° | 38km/h | 18271m | 4.5m/s | 0°C | 0% | 0hPa | 0V | 00:00:00 | 00:00:00 | 00:00:00 | |
| RDZBGO | 2026-09-01 12:20:07 | 42.02155 | 9.49172 | 40° | 42km/h | 18182m | 5.4m/s | 0°C | 0% | 0hPa | 0V | 00:00:00 | 00:00:00 | 00:00:00 | |
| RDZBGO | 2026-09-01 12:19:46 | 42.02054 | 9.49035 | 22° | 27km/h | 18095m | 3.2m/s | 0°C | 0% | 0hPa | 0V | 00:00:00 | 00:00:00 | 00:00:00 | |
| RDZBGO | 2026-09-01 12:19:26 | 42.01960 | 9.48934 | 34° | 18km/h | 18004m | 3.9m/s | 0°C | 0% | 0hPa | 0V | 00:00:00 | 00:00:00 | 00:00:00 | |
| RDZBGO | 2026-09-01 12:19:05 | 42.01852 | 9.48872 | 12° | 26km/h | 17922m | 4.1m/s | 0°C | 0% | 0hPa | 0V | 00:00:00 | 00:00:00 | 00:00:00 | |
| RDZBGO | 2026-09-01 12:18:44 | 42.01774 | 9.48849 | 13° | 16km/h | 17835m | 4.1m/s | 0°C | 0% | 0hPa | 0V | 00:00:00 | 00:00:00 | 00:00:00 | |
| RDZBGO | 2026-09-01 12:18:24 | 42.01741 | 9.48813 | 239° | 5km/h | 17754m | 3.3m/s | 0°C | 0% | 0hPa | 0V | 00:00:00 | 00:00:00 | 00:00:00 | |
| RDZBGO | 2026-09-01 12:18:03 | 42.01772 | 9.48718 | 109° | 13km/h | 17656m | 4.7m/s | 0°C | 0% | 0hPa | 0V | 00:00:00 | 00:00:00 | 00:00:00 | |
| RDZBGO | 2026-09-01 12:17:42 | 42.01832 | 9.48575 | 158° | 29km/h | 17549m | 4.5m/s | 0°C | 0% | 0hPa | 0V | 00:00:00 | 00:00:00 | 00:00:00 | |
| RDZBGO | 2026-09-01 12:17:22 | 42.01876 | 9.48402 | 125° | 37km/h | 17443m | 4.1m/s | 0°C | 0% | 0hPa | 0V | 00:00:00 | 00:00:00 | 00:00:00 | |
| RDZBGO | 2026-09-01 12:17:02 | 42.01900 | 9.48103 | 103° | 44km/h | 17351m | 4.3m/s | 0°C | 0% | 0hPa | 0V | 00:00:00 | 00:00:00 | 00:00:00 | |
| RDZBGO | 2026-09-01 12:16:41 | 42.01864 | 9.47768 | 88° | 49km/h | 17267m | 4.1m/s | 0°C | 0% | 0hPa | 0V | 00:00:00 | 00:00:00 | 00:00:00 | |
| RDZBGO | 2026-09-01 12:16:21 | 42.01788 | 9.47452 | 66° | 51km/h | 17183m | 4.4m/s | 0°C | 0% | 0hPa | 0V | 00:00:00 | 00:00:00 | 00:00:00 | |
| RDZBGO | 2026-09-01 12:15:40 | 42.01544 | 9.46733 | 57° | 58km/h | 17007m | 5.2m/s | 0°C | 0% | 0hPa | 0V | 00:00:00 | 00:00:00 | 00:00:00 | |
| RDZBGO | 2026-09-01 12:15:21 | 42.01367 | 9.46433 | 51° | 64km/h | 16914m | 5.1m/s | 0°C | 0% | 0hPa | 0V | 00:00:00 | 00:00:00 | 00:00:00 | |
| RDZBGO | 2026-09-01 12:15:00 | 42.01169 | 9.46196 | 35° | 55km/h | 16821m | 6.0m/s | 0°C | 0% | 0hPa | 0V | 00:00:00 | 00:00:00 | 00:00:00 | |
| RDZBGO | 2026-09-01 12:14:38 | 42.00937 | 9.45978 | 36° | 55km/h | 16733m | 4.2m/s | 0°C | 0% | 0hPa | 0V | 00:00:00 | 00:00:00 | 00:00:00 | |
| RDZBGO | 2026-09-01 12:14:18 | 42.00727 | 9.45774 | 48° | 37km/h | 16648m | 3.6m/s | 0°C | 0% | 0hPa | 0V | 00:00:00 | 00:00:00 | 00:00:00 | |
| RDZBGO | 2026-09-01 12:13:57 | 42.00546 | 9.45546 | 48° | 47km/h | 16556m | 3.6m/s | 0°C | 0% | 0hPa | 0V | 00:00:00 | 00:00:00 | 00:00:00 | |
| RDZBGO | 2026-09-01 12:13:36 | 42.00410 | 9.45287 | 69° | 40km/h | 16473m | 4.6m/s | 0°C | 0% | 0hPa | 0V | 00:00:00 | 00:00:00 | 00:00:00 | |
| RDZBGO | 2026-09-01 12:13:15 | 42.00335 | 9.45057 | 101° | 37km/h | 16386m | 4.8m/s | 0°C | 0% | 0hPa | 0V | 00:00:00 | 00:00:00 | 00:00:00 | |
| RDZBGO | 2026-09-01 12:12:54 | 42.00321 | 9.44783 | 109° | 46km/h | 16313m | 2.8m/s | 0°C | 0% | 0hPa | 0V | 00:00:00 | 00:00:00 | 00:00:00 | |
| RDZBGO | 2026-09-01 12:12:35 | 42.00315 | 9.44481 | 98° | 49km/h | 16243m | 5.2m/s | 0°C | 0% | 0hPa | 0V | 00:00:00 | 00:00:00 | 00:00:00 | |
| RDZBGO | 2026-09-01 12:12:13 | 42.00277 | 9.44128 | 80° | 40km/h | 16166m | 3.8m/s | 0°C | 0% | 0hPa | 0V | 00:00:00 | 00:00:00 | 00:00:00 | |
| RDZBGO | 2026-09-01 12:11:54 | 42.00208 | 9.43771 | 70° | 53km/h | 16089m | 5.1m/s | 0°C | 0% | 0hPa | 0V | 00:00:00 | 00:00:00 | 00:00:00 |